Time;durP1;ratioP1;P1;durP2;ratioP2;P2;SDS_P1;SDS_P2;PMS_P1;PMS_P2;Temp;Humidity;BMP_temperature;BMP_pressure;BME280_temperature;BME280_humidity;BME280_pressure;Samples;Min_cycle;Max_cycle;Signal;HPM_P1;HPM_P2
2021/06/10 00:00:11;;;;;;;6.60;6.00;;;24.20;57.20;;;;;;5036885;28;20123;-54
2021/06/10 00:02:40;;;;;;;6.70;6.10;;;24.20;57.20;;;;;;5053079;28;20500;-55
2021/06/10 00:05:10;;;;;;;6.95;6.30;;;24.20;57.20;;;;;;5036682;28;20045;-52
2021/06/10 00:07:38;;;;;;;6.85;6.25;;;24.20;57.20;;;;;;5036302;28;20080;-56
2021/06/10 00:10:09;;;;;;;6.78;6.07;;;24.20;57.20;;;;;;5035212;28;20053;-53
2021/06/10 00:12:36;;;;;;;6.47;5.88;;;24.20;57.20;;;;;;5052783;28;20049;-53
2021/06/10 00:15:07;;;;;;;7.00;6.30;;;24.20;57.20;;;;;;5052258;28;20161;-53
2021/06/10 00:17:34;;;;;;;6.53;5.93;;;24.20;57.20;;;;;;5051221;28;20077;-50
2021/06/10 00:20:04;;;;;;;6.75;6.15;;;24.20;57.20;;;;;;5052959;28;20045;-51
2021/06/10 00:22:32;;;;;;;6.32;5.72;;;24.20;57.20;;;;;;5048795;28;20103;-53
2021/06/10 00:24:59;;;;;;;7.32;6.63;;;24.20;57.20;;;;;;5052641;28;20053;-50
2021/06/10 00:27:27;;;;;;;6.53;5.93;;;24.20;57.20;;;;;;5035857;28;20136;-51
2021/06/10 00:29:55;;;;;;;6.82;5.97;;;24.20;57.20;;;;;;5035263;28;20053;-53
2021/06/10 00:32:22;;;;;;;6.72;6.03;;;24.20;57.20;;;;;;5035575;28;20123;-55
2021/06/10 00:34:50;;;;;;;6.53;5.93;;;24.20;57.30;;;;;;5047711;28;20049;-52
2021/06/10 00:37:17;;;;;;;7.18;6.47;;;24.20;57.20;;;;;;5040101;28;20095;-54
2021/06/10 00:39:45;;;;;;;6.82;6.18;;;24.20;57.20;;;;;;5045555;28;20052;-50
2021/06/10 00:42:12;;;;;;;6.53;5.93;;;24.20;57.20;;;;;;5040795;28;20100;-53
2021/06/10 00:44:39;;;;;;;6.20;5.70;;;24.20;57.20;;;;;;5034991;28;20053;-55
2021/06/10 00:47:07;;;;;;;6.25;5.65;;;24.10;57.20;;;;;;5043868;28;20049;-55
2021/06/10 00:49:37;;;;;;;6.10;5.60;;;24.10;57.20;;;;;;5046066;28;20099;-53
2021/06/10 00:52:05;;;;;;;6.60;6.00;;;24.20;57.20;;;;;;5034887;28;20136;-53
2021/06/10 00:54:32;;;;;;;6.50;5.90;;;24.10;57.20;;;;;;5034852;28;20107;-53
2021/06/10 00:57:00;;;;;;;6.55;5.95;;;24.10;57.70;;;;;;5036549;28;20068;-53
2021/06/10 00:59:28;;;;;;;6.82;6.22;;;24.10;57.20;;;;;;5038268;28;20042;-55
2021/06/10 01:01:55;;;;;;;7.35;6.18;;;24.10;57.20;;;;;;5039603;28;20521;-54
2021/06/10 01:04:23;;;;;;;6.40;5.90;;;24.10;57.20;;;;;;5041447;28;20037;-52
2021/06/10 01:07:16;;;;;;;6.40;5.80;;;24.10;57.20;;;;;;5047250;28;20040;-54
2021/06/10 01:09:57;;;;;;;6.70;6.05;;;24.10;57.20;;;;;;5054896;28;20544;-55
2021/06/10 01:12:49;;;;;;;6.03;5.43;;;24.10;57.20;;;;;;5055027;28;20041;-50
2021/06/10 01:15:17;;;;;;;6.20;5.60;;;24.10;57.20;;;;;;5053281;28;20056;-53
2021/06/10 01:17:47;;;;;;;7.00;6.30;;;24.10;57.20;;;;;;5054486;28;20052;-50
2021/06/10 01:20:18;;;;;;;6.30;5.80;;;24.10;57.20;;;;;;5054484;28;20080;-51
2021/06/10 01:22:58;;;;;;;6.18;5.57;;;24.10;57.20;;;;;;5049169;28;20056;-50
2021/06/10 01:26:02;;;;;;;6.35;5.65;;;24.10;57.20;;;;;;5044193;28;20048;-50
2021/06/10 01:28:34;;;;;;;6.07;5.53;;;24.10;57.20;;;;;;5041649;28;20041;-49
2021/06/10 01:31:08;;;;;;;6.88;6.28;;;24.10;57.20;;;;;;5044071;28;20128;-54
2021/06/10 01:33:48;;;;;;;6.47;5.88;;;24.10;57.20;;;;;;5048000;28;20060;-53
2021/06/10 01:36:19;;;;;;;7.13;5.95;;;24.10;57.80;;;;;;5053997;28;20048;-53
2021/06/10 01:38:49;;;;;;;6.53;5.93;;;24.10;57.80;;;;;;5043721;28;20120;-51
2021/06/10 01:41:19;;;;;;;6.85;6.25;;;24.10;57.20;;;;;;5047678;28;20501;-55
2021/06/10 01:43:48;;;;;;;6.53;5.93;;;24.10;57.20;;;;;;5055521;28;20045;-50
2021/06/10 01:46:28;;;;;;;6.00;5.50;;;24.10;57.20;;;;;;5055063;28;20040;-52
2021/06/10 01:48:57;;;;;;;6.68;6.07;;;24.10;57.20;;;;;;5053828;28;20060;-54
2021/06/10 01:51:27;;;;;;;5.68;5.18;;;24.10;57.20;;;;;;5054026;28;20045;-56
2021/06/10 01:53:57;;;;;;;6.65;5.95;;;24.10;57.20;;;;;;5046704;28;20556;-53
2021/06/10 01:56:26;;;;;;;6.68;6.05;;;24.10;57.30;;;;;;5046536;28;20055;-53
2021/06/10 01:58:54;;;;;;;6.85;6.25;;;24.10;57.30;;;;;;5048956;28;20048;-52
2021/06/10 02:01:25;;;;;;;6.20;5.60;;;24.20;57.40;;;;;;5043780;28;20037;-53
2021/06/10 02:03:54;;;;;;;5.97;5.40;;;24.10;57.30;;;;;;5059610;28;20139;-53
2021/06/10 02:06:23;;;;;;;6.70;6.10;;;24.10;57.30;;;;;;5065599;28;20049;-50
2021/06/10 02:08:52;;;;;;;5.60;5.10;;;24.10;57.30;;;;;;5047831;28;20041;-54
2021/06/10 02:11:20;;;;;;;6.93;5.75;;;24.10;57.30;;;;;;5041127;28;20051;-55
2021/06/10 02:13:49;;;;;;;6.50;5.90;;;24.10;57.30;;;;;;5056661;28;20427;-53
2021/06/10 02:16:18;;;;;;;5.57;5.07;;;24.10;57.30;;;;;;5083023;28;20045;-55
2021/06/10 02:18:47;;;;;;;6.57;5.97;;;24.10;57.30;;;;;;5054869;28;20494;-54
2021/06/10 02:21:16;;;;;;;6.28;5.68;;;24.10;57.30;;;;;;5052571;28;20481;-56
2021/06/10 02:23:46;;;;;;;6.30;5.70;;;24.10;57.30;;;;;;5037061;28;20079;-52
2021/06/10 02:26:14;;;;;;;5.97;5.38;;;24.10;57.30;;;;;;5053339;28;20128;-55
2021/06/10 02:28:43;;;;;;;6.38;5.72;;;24.10;57.30;;;;;;5053108;28;20497;-55
2021/06/10 02:31:11;;;;;;;5.93;5.43;;;24.10;57.40;;;;;;5052799;28;20080;-55
2021/06/10 02:33:41;;;;;;;6.00;5.40;;;24.10;57.30;;;;;;5053306;28;20135;-57
2021/06/10 02:36:10;;;;;;;6.72;5.80;;;24.10;57.30;;;;;;5053074;28;20132;-55
2021/06/10 02:38:43;;;;;;;6.18;5.63;;;24.10;57.30;;;;;;5036139;28;20128;-54
2021/06/10 02:41:12;;;;;;;6.10;5.57;;;24.10;57.40;;;;;;5036220;28;20042;-50
2021/06/10 02:43:40;;;;;;;6.50;5.90;;;24.10;57.40;;;;;;5036443;28;20046;-57
2021/06/10 02:46:09;;;;;;;6.28;5.68;;;24.10;57.40;;;;;;5053139;28;20056;-53
2021/06/10 02:48:38;;;;;;;5.57;5.07;;;24.10;57.40;;;;;;5053856;28;20053;-56
2021/06/10 02:51:06;;;;;;;6.53;5.90;;;24.10;57.40;;;;;;5053799;28;20056;-54
2021/06/10 02:53:35;;;;;;;6.70;5.82;;;24.10;57.40;;;;;;5040398;28;20057;-55
2021/06/10 02:56:05;;;;;;;7.05;6.35;;;24.10;57.40;;;;;;5048708;28;20052;-55
2021/06/10 02:58:33;;;;;;;6.10;5.57;;;24.10;57.40;;;;;;5065641;28;20080;-55
2021/06/10 03:01:05;;;;;;;5.90;5.35;;;24.10;57.40;;;;;;5058877;28;20045;-53
2021/06/10 03:03:33;;;;;;;6.32;5.75;;;24.10;57.40;;;;;;5052420;28;20136;-55
2021/06/10 03:06:02;;;;;;;6.32;5.82;;;24.10;57.40;;;;;;5048364;28;20049;-52
2021/06/10 03:08:30;;;;;;;6.10;5.50;;;24.10;57.40;;;;;;5045397;28;20044;-56
2021/06/10 03:11:00;;;;;;;5.90;5.40;;;24.10;57.40;;;;;;5051260;28;20529;-54
2021/06/10 03:13:30;;;;;;;6.30;5.70;;;24.10;57.40;;;;;;5052484;28;20493;-55
2021/06/10 03:15:59;;;;;;;5.88;5.38;;;24.10;57.40;;;;;;5052316;28;20044;-55
2021/06/10 03:18:27;;;;;;;6.00;5.47;;;24.10;57.40;;;;;;5052244;28;20114;-52
2021/06/10 03:20:59;;;;;;;5.70;5.20;;;24.10;57.40;;;;;;5051990;28;20083;-56
2021/06/10 03:23:27;;;;;;;6.18;5.57;;;24.10;57.40;;;;;;5052225;28;20124;-56
2021/06/10 03:25:55;;;;;;;6.00;5.50;;;24.10;57.40;;;;;;5052229;28;20144;-56
2021/06/10 03:28:24;;;;;;;6.00;5.50;;;24.10;57.40;;;;;;5053541;28;20045;-53
2021/06/10 03:30:52;;;;;;;6.28;5.68;;;24.10;57.40;;;;;;5053237;28;20079;-55
2021/06/10 03:33:21;;;;;;;6.13;5.63;;;24.10;57.40;;;;;;5052190;28;20052;-52
2021/06/10 03:35:50;;;;;;;5.80;5.30;;;24.10;57.40;;;;;;5051585;28;20055;-56
2021/06/10 03:38:19;;;;;;;5.53;5.03;;;24.10;57.40;;;;;;5037713;28;20463;-55
2021/06/10 03:40:48;;;;;;;6.32;5.68;;;24.10;57.40;;;;;;5053151;28;20120;-55
2021/06/10 03:43:17;;;;;;;6.25;5.65;;;24.10;57.40;;;;;;5053195;28;20080;-57
2021/06/10 03:45:44;;;;;;;5.93;5.43;;;24.10;57.40;;;;;;5036299;28;20049;-54
2021/06/10 03:48:13;;;;;;;6.70;6.03;;;24.10;57.40;;;;;;5052457;28;20049;-53
2021/06/10 03:50:42;;;;;;;6.25;5.65;;;24.10;57.90;;;;;;5052092;28;20053;-56
2021/06/10 03:53:09;;;;;;;7.25;5.40;;;24.10;57.40;;;;;;5049839;28;20044;-57
2021/06/10 03:55:37;;;;;;;5.75;5.25;;;24.10;57.30;;;;;;5035062;28;20050;-53
2021/06/10 03:58:05;;;;;;;5.80;5.30;;;24.20;57.40;;;;;;5051456;28;20132;-53
2021/06/10 04:00:33;;;;;;;6.20;5.60;;;24.20;57.40;;;;;;5052979;28;20049;-51
2021/06/10 04:03:01;;;;;;;5.65;5.15;;;24.20;57.40;;;;;;5037377;28;20042;-54
2021/06/10 04:05:31;;;;;;;5.80;5.30;;;24.20;57.40;;;;;;5034832;28;20045;-55
2021/06/10 04:07:59;;;;;;;5.72;5.22;;;24.20;57.40;;;;;;5051507;28;20143;-50
2021/06/10 04:10:27;;;;;;;5.85;5.25;;;24.20;57.40;;;;;;5050925;28;20045;-52
2021/06/10 04:12:55;;;;;;;6.13;5.53;;;24.20;57.40;;;;;;5051664;28;20045;-50
2021/06/10 04:15:22;;;;;;;5.65;5.15;;;24.20;57.40;;;;;;5042274;28;20050;-54
2021/06/10 04:17:50;;;;;;;5.80;5.25;;;24.20;57.40;;;;;;5036516;28;20119;-54
2021/06/10 04:20:19;;;;;;;5.95;5.45;;;24.20;57.40;;;;;;5044527;28;20044;-53
2021/06/10 04:22:46;;;;;;;5.90;5.40;;;24.20;57.40;;;;;;5043512;28;20057;-51
2021/06/10 04:25:14;;;;;;;5.90;5.40;;;24.20;57.40;;;;;;5035324;28;20124;-57
2021/06/10 04:27:42;;;;;;;5.72;5.22;;;24.20;57.40;;;;;;5041558;28;20049;-55
2021/06/10 04:30:11;;;;;;;5.47;5.03;;;24.20;57.40;;;;;;5045892;28;20049;-50
2021/06/10 04:32:41;;;;;;;5.68;5.18;;;24.20;57.40;;;;;;5043572;28;20132;-53
2021/06/10 04:35:09;;;;;;;5.68;5.13;;;24.20;57.40;;;;;;5056747;28;20044;-53
2021/06/10 04:37:36;;;;;;;5.30;4.80;;;24.20;57.40;;;;;;5051564;28;20045;-55
2021/06/10 04:40:06;;;;;;;5.80;5.30;;;24.20;57.30;;;;;;5039960;28;20493;-52
2021/06/10 04:42:33;;;;;;;5.45;4.93;;;24.20;57.30;;;;;;5040846;28;20124;-51
2021/06/10 04:45:01;;;;;;;5.22;4.72;;;24.20;57.30;;;;;;5055144;28;20481;-54
2021/06/10 04:47:28;;;;;;;5.70;5.20;;;24.20;57.20;;;;;;5055397;28;20047;-55
2021/06/10 04:49:56;;;;;;;5.88;5.28;;;24.30;57.30;;;;;;5038393;28;20519;-55
2021/06/10 04:52:24;;;;;;;6.22;5.63;;;24.30;57.20;;;;;;5054796;28;20504;-51
2021/06/10 04:54:51;;;;;;;5.72;5.22;;;24.30;57.20;;;;;;5054815;28;20495;-53
2021/06/10 04:57:19;;;;;;;5.50;5.00;;;24.30;57.10;;;;;;5054905;28;20080;-56
2021/06/10 04:59:47;;;;;;;5.65;5.15;;;24.30;57.10;;;;;;5053930;28;20049;-55
2021/06/10 05:02:14;;;;;;;6.25;5.65;;;24.40;57.10;;;;;;5054751;28;20068;-53
2021/06/10 05:04:42;;;;;;;5.45;4.95;;;24.40;57.10;;;;;;5054857;28;20482;-55
2021/06/10 05:07:12;;;;;;;5.68;5.18;;;24.40;57.00;;;;;;5042519;28;20422;-54
2021/06/10 05:09:40;;;;;;;5.95;5.35;;;24.40;57.00;;;;;;5040861;28;20045;-54
2021/06/10 05:12:08;;;;;;;5.60;5.10;;;24.40;57.00;;;;;;5051626;28;20390;-56
2021/06/10 05:14:35;;;;;;;5.20;4.75;;;24.40;57.00;;;;;;5052330;28;20107;-55
2021/06/10 05:17:04;;;;;;;5.82;5.32;;;24.40;56.90;;;;;;5054353;28;20521;-52
2021/06/10 05:19:32;;;;;;;6.35;5.75;;;24.40;56.90;;;;;;5064090;28;20049;-57
2021/06/10 05:21:59;;;;;;;6.03;5.53;;;24.40;56.80;;;;;;5061437;28;20045;-55
2021/06/10 05:24:27;;;;;;;5.90;5.40;;;24.40;56.80;;;;;;5053200;28;20083;-53
2021/06/10 05:26:56;;;;;;;5.70;5.20;;;24.50;56.90;;;;;;5054406;28;20128;-55
2021/06/10 05:29:24;;;;;;;5.35;4.93;;;24.50;56.80;;;;;;5047017;28;20099;-55
2021/06/10 05:31:51;;;;;;;5.35;4.85;;;24.50;56.80;;;;;;5038155;28;20065;-55
2021/06/10 05:34:19;;;;;;;5.25;4.75;;;24.50;56.80;;;;;;5053114;28;20125;-53
2021/06/10 05:36:47;;;;;;;4.95;4.55;;;24.50;56.70;;;;;;5037472;28;20124;-53
2021/06/10 05:39:14;;;;;;;5.38;4.90;;;24.60;56.80;;;;;;5037771;28;20124;-52
2021/06/10 05:41:42;;;;;;;5.45;4.95;;;24.60;56.70;;;;;;5040988;28;20050;-54
2021/06/10 05:44:09;;;;;;;5.85;5.35;;;24.60;56.50;;;;;;5051863;28;20523;-53
2021/06/10 05:46:37;;;;;;;5.68;5.10;;;24.70;56.50;;;;;;5037420;28;20091;-54
2021/06/10 05:49:05;;;;;;;5.78;5.28;;;24.70;56.50;;;;;;5039070;28;20047;-56
2021/06/10 05:51:33;;;;;;;5.05;4.65;;;24.70;56.40;;;;;;5038549;28;20520;-55
2021/06/10 05:54:00;;;;;;;5.20;4.80;;;24.70;56.30;;;;;;5053283;28;20053;-55
2021/06/10 05:56:28;;;;;;;5.75;5.25;;;24.80;56.30;;;;;;5036303;28;20509;-55
2021/06/10 05:58:56;;;;;;;4.85;4.45;;;24.80;56.20;;;;;;5052942;28;20515;-56
2021/06/10 06:01:24;;;;;;;5.45;4.95;;;24.80;56.10;;;;;;5053849;28;20051;-56
2021/06/10 06:03:51;;;;;;;5.30;4.68;;;24.90;56.10;;;;;;5053652;28;20044;-55
2021/06/10 06:06:19;;;;;;;5.35;4.85;;;24.90;56.00;;;;;;5045855;28;20068;-55
2021/06/10 06:08:47;;;;;;;4.90;4.50;;;24.90;56.00;;;;;;5051857;28;20052;-56
2021/06/10 06:11:16;;;;;;;5.82;5.25;;;24.90;55.90;;;;;;5051798;28;20104;-54
2021/06/10 06:13:45;;;;;;;5.45;4.95;;;24.90;55.90;;;;;;5039711;28;20046;-56
2021/06/10 06:16:19;;;;;;;5.43;4.93;;;24.90;55.90;;;;;;5036913;28;20046;-58
2021/06/10 06:18:48;;;;;;;5.25;4.80;;;24.90;55.80;;;;;;5049169;28;20056;-57
2021/06/10 06:21:16;;;;;;;5.35;4.85;;;25.00;55.90;;;;;;5052221;28;20508;-57
2021/06/10 06:23:44;;;;;;;5.22;4.70;;;25.00;55.80;;;;;;5054291;28;20075;-58
2021/06/10 06:26:12;;;;;;;5.72;5.22;;;25.00;55.80;;;;;;5045539;28;20081;-56
2021/06/10 06:28:40;;;;;;;5.40;4.90;;;25.00;55.70;;;;;;5037617;28;20047;-54
2021/06/10 06:31:09;;;;;;;5.00;4.60;;;25.00;55.70;;;;;;5046161;28;20044;-55
2021/06/10 06:33:37;;;;;;;5.47;4.97;;;25.00;55.70;;;;;;5052007;28;20244;-56
2021/06/10 06:36:06;;;;;;;5.30;4.80;;;25.00;55.70;;;;;;5051657;28;20064;-56
2021/06/10 06:38:35;;;;;;;5.35;4.85;;;25.00;55.70;;;;;;5054240;28;20048;-56
2021/06/10 06:41:05;;;;;;;5.18;4.68;;;25.00;55.70;;;;;;5052784;28;20041;-57
2021/06/10 06:43:33;;;;;;;5.50;5.00;;;25.10;55.70;;;;;;5052835;28;20049;-55
2021/06/10 06:46:06;;;;;;;5.95;5.35;;;25.10;55.70;;;;;;5051655;28;20094;-52
2021/06/10 06:48:34;;;;;;;5.50;5.00;;;25.10;55.70;;;;;;5052733;28;20067;-56
2021/06/10 06:51:03;;;;;;;5.32;4.82;;;25.10;55.60;;;;;;5052671;28;20041;-51
2021/06/10 06:53:31;;;;;;;5.03;4.63;;;25.10;55.60;;;;;;5049175;28;20049;-56
2021/06/10 06:56:18;;;;;;;5.00;4.60;;;25.10;55.60;;;;;;5040432;28;20416;-55
2021/06/10 06:58:46;;;;;;;4.90;4.50;;;25.10;55.60;;;;;;5052325;28;20405;-55
2021/06/10 07:01:14;;;;;;;5.65;5.15;;;25.10;55.60;;;;;;5049867;28;20041;-54
2021/06/10 07:03:42;;;;;;;5.22;4.72;;;25.10;55.60;;;;;;5036789;28;20049;-56
2021/06/10 07:06:10;;;;;;;5.00;4.47;;;25.10;55.50;;;;;;5050454;28;20041;-56
2021/06/10 07:08:38;;;;;;;4.40;4.00;;;25.10;55.50;;;;;;5052069;28;20049;-56
2021/06/10 07:11:05;;;;;;;4.63;4.22;;;25.10;55.50;;;;;;5052545;28;20049;-56
2021/06/10 07:13:33;;;;;;;4.95;4.47;;;25.10;55.50;;;;;;5033649;28;20045;-55
2021/06/10 07:16:01;;;;;;;5.00;4.60;;;25.10;55.50;;;;;;5034768;28;20056;-54
2021/06/10 07:18:30;;;;;;;5.00;4.60;;;25.10;55.50;;;;;;5033815;28;20045;-56
2021/06/10 07:20:57;;;;;;;5.30;4.80;;;25.10;55.50;;;;;;5053660;28;20053;-55
2021/06/10 07:23:25;;;;;;;6.45;4.97;;;25.10;55.60;;;;;;5037467;28;20132;-56
2021/06/10 07:25:53;;;;;;;4.47;4.07;;;25.10;55.60;;;;;;5035827;28;20054;-56
2021/06/10 07:28:20;;;;;;;4.68;4.28;;;25.00;55.50;;;;;;5035690;28;20103;-55
2021/06/10 07:30:49;;;;;;;4.70;4.30;;;25.10;55.60;;;;;;5050501;28;20052;-54
2021/06/10 07:33:16;;;;;;;4.90;4.50;;;25.10;55.50;;;;;;5039308;28;20049;-55
2021/06/10 07:35:44;;;;;;;4.88;4.47;;;25.10;55.50;;;;;;5049777;28;20118;-56
2021/06/10 07:38:13;;;;;;;4.68;4.28;;;25.10;55.40;;;;;;5053323;28;20477;-57
2021/06/10 07:40:41;;;;;;;4.70;4.30;;;25.10;55.40;;;;;;5052292;28;20103;-56
2021/06/10 07:43:09;;;;;;;5.22;4.75;;;25.10;55.40;;;;;;5052137;28;20436;-54
2021/06/10 07:45:37;;;;;;;4.93;4.53;;;25.10;55.40;;;;;;5051970;28;20116;-54
2021/06/10 07:48:05;;;;;;;4.60;4.20;;;25.20;55.40;;;;;;5043958;28;20140;-54
2021/06/10 07:50:34;;;;;;;4.60;4.18;;;25.20;55.30;;;;;;5042466;28;20045;-56
2021/06/10 07:53:01;;;;;;;5.32;4.85;;;25.20;55.30;;;;;;5050513;28;20481;-55
2021/06/10 07:55:29;;;;;;;4.65;4.25;;;25.20;55.20;;;;;;5050576;28;20056;-57
2021/06/10 07:58:00;;;;;;;4.70;4.30;;;25.20;55.20;;;;;;5047123;28;20382;-55
2021/06/10 08:00:28;;;;;;;4.82;4.43;;;25.20;55.10;;;;;;5036536;28;20132;-54
2021/06/10 08:02:58;;;;;;;4.65;4.25;;;25.30;55.10;;;;;;5037652;28;20061;-56
2021/06/10 08:05:27;;;;;;;4.13;3.72;;;25.30;55.00;;;;;;5050784;28;20049;-55
2021/06/10 08:07:55;;;;;;;5.20;4.70;;;25.30;55.00;;;;;;5054785;28;20091;-52
2021/06/10 08:10:23;;;;;;;4.70;4.30;;;25.40;54.90;;;;;;5056932;28;20124;-55
2021/06/10 08:12:51;;;;;;;4.40;4.00;;;25.40;54.80;;;;;;5056701;28;20207;-55
2021/06/10 08:15:20;;;;;;;4.45;4.05;;;25.40;54.80;;;;;;5056701;28;20056;-55
2021/06/10 08:17:48;;;;;;;5.40;4.40;;;25.40;54.80;;;;;;5038142;28;20118;-54
2021/06/10 08:20:18;;;;;;;4.82;4.32;;;25.40;54.70;;;;;;5055191;28;20081;-55
2021/06/10 08:22:47;;;;;;;4.32;4.00;;;25.40;54.70;;;;;;5054595;28;20049;-54
2021/06/10 08:25:15;;;;;;;4.60;4.20;;;25.40;54.70;;;;;;5054702;28;20045;-54
2021/06/10 08:27:42;;;;;;;4.53;4.13;;;25.40;54.60;;;;;;5038301;28;20053;-54
2021/06/10 08:30:13;;;;;;;4.63;4.22;;;25.40;54.60;;;;;;5037785;28;20052;-51
2021/06/10 08:32:41;;;;;;;4.10;3.80;;;25.40;54.60;;;;;;5054894;28;20098;-54
2021/06/10 08:35:09;;;;;;;4.65;4.25;;;25.50;54.70;;;;;;5041619;28;20076;-55
2021/06/10 08:37:38;;;;;;;4.32;3.92;;;25.40;54.60;;;;;;5053056;28;20049;-56
2021/06/10 08:40:09;;;;;;;4.50;4.10;;;25.50;54.70;;;;;;5055427;28;20128;-54
2021/06/10 08:42:39;;;;;;;4.30;3.97;;;25.50;54.70;;;;;;5042856;28;20049;-56
2021/06/10 08:45:13;;;;;;;4.40;4.00;;;25.50;54.70;;;;;;5050939;28;20049;-56
2021/06/10 08:47:44;;;;;;;4.47;4.07;;;25.50;54.70;;;;;;5057445;28;20508;-54
2021/06/10 08:50:18;;;;;;;4.25;3.85;;;25.50;54.60;;;;;;5055647;28;20048;-55
2021/06/10 08:52:47;;;;;;;4.80;4.40;;;25.50;54.50;;;;;;5055847;28;20045;-52
2021/06/10 08:55:15;;;;;;;4.68;4.28;;;25.50;54.50;;;;;;5042607;28;20053;-49
2021/06/10 08:57:43;;;;;;;3.97;3.63;;;25.60;54.50;;;;;;5038876;28;20449;-53
2021/06/10 09:00:26;;;;;;;4.68;4.28;;;25.60;55.10;;;;;;5051281;28;20068;-56
2021/06/10 09:03:00;;;;;;;3.90;3.60;;;25.60;54.40;;;;;;5054824;28;20386;-57
2021/06/10 09:05:30;;;;;;;4.70;4.30;;;25.60;54.40;;;;;;5043180;28;20137;-54
2021/06/10 09:08:04;;;;;;;4.22;3.83;;;25.60;54.40;;;;;;5055700;28;20057;-56
2021/06/10 09:10:34;;;;;;;4.93;4.53;;;25.60;54.50;;;;;;5045198;28;20136;-57
2021/06/10 09:13:07;;;;;;;4.70;4.30;;;25.60;54.50;;;;;;5050549;28;20045;-52
2021/06/10 09:15:38;;;;;;;4.60;4.20;;;25.50;54.50;;;;;;5045905;28;20555;-54
2021/06/10 09:18:06;;;;;;;4.57;4.18;;;25.50;54.50;;;;;;5037548;28;20433;-52
2021/06/10 09:20:42;;;;;;;4.38;4.00;;;25.60;54.60;;;;;;5047947;28;20052;-56
2021/06/10 09:23:16;;;;;;;4.53;4.13;;;25.50;54.50;;;;;;5054405;28;20049;-54
2021/06/10 09:25:46;;;;;;;;;;;25.50;54.50;;;;;;5054864;28;20067;-55
2021/06/10 09:28:14;;;;;;;4.60;4.20;;;25.60;54.60;;;;;;5055352;28;20428;-52
2021/06/10 09:30:49;;;;;;;4.53;4.13;;;25.60;54.50;;;;;;5054282;28;20560;-51
2021/06/10 09:33:24;;;;;;;4.43;4.03;;;25.50;54.50;;;;;;5046680;28;20519;-53
2021/06/10 09:35:54;;;;;;;4.47;4.07;;;25.50;54.50;;;;;;5046936;28;20190;-53
2021/06/10 09:38:22;;;;;;;4.65;4.25;;;25.50;54.50;;;;;;5055325;28;20124;-53
2021/06/10 09:40:52;;;;;;;4.32;3.92;;;25.60;54.60;;;;;;5054401;28;20041;-54
2021/06/10 09:43:20;;;;;;;4.53;4.13;;;25.50;54.50;;;;;;5055276;28;20051;-54
2021/06/10 09:45:53;;;;;;;3.90;3.60;;;25.60;54.60;;;;;;5048922;28;20049;-54
2021/06/10 09:48:31;;;;;;;4.40;4.00;;;25.60;54.60;;;;;;5043917;28;20119;-53
2021/06/10 09:51:01;;;;;;;4.38;3.97;;;25.60;54.50;;;;;;5048433;28;20045;-55
2021/06/10 09:53:32;;;;;;;4.25;3.85;;;25.60;54.50;;;;;;5038345;28;20127;-55
2021/06/10 09:56:06;;;;;;;4.00;3.60;;;25.60;54.40;;;;;;5041943;28;20060;-56
2021/06/10 09:58:41;;;;;;;4.10;3.70;;;25.60;54.40;;;;;;5049735;28;20096;-53
2021/06/10 10:01:17;;;;;;;4.10;3.80;;;25.60;54.40;;;;;;5041786;28;20037;-54
2021/06/10 10:03:47;;;;;;;4.38;3.97;;;25.60;54.40;;;;;;5053811;28;20096;-49
2021/06/10 10:06:30;;;;;;;3.92;3.63;;;25.60;54.40;;;;;;5050764;28;20074;-51
2021/06/10 10:09:05;;;;;;;4.40;4.00;;;25.60;54.40;;;;;;5053547;28;20060;-52
2021/06/10 10:11:34;;;;;;;5.05;3.90;;;25.60;55.10;;;;;;5053484;28;20053;-52
2021/06/10 10:14:05;;;;;;;4.40;4.00;;;25.60;54.50;;;;;;5052327;28;20045;-54
2021/06/10 10:16:35;;;;;;;4.60;4.20;;;25.60;54.60;;;;;;5049151;28;20414;-52
2021/06/10 10:19:05;;;;;;;4.13;3.72;;;25.60;54.60;;;;;;5041187;28;20159;-53
2021/06/10 10:21:36;;;;;;;4.13;3.72;;;25.60;54.60;;;;;;5054728;28;20049;-54
2021/06/10 10:24:10;;;;;;;4.38;3.97;;;25.60;54.60;;;;;;5053270;28;20045;-54
2021/06/10 10:26:38;;;;;;;3.85;3.55;;;25.60;54.50;;;;;;5050178;28;20128;-55
2021/06/10 10:29:13;;;;;;;3.83;3.53;;;25.60;54.40;;;;;;5038030;28;20044;-52
2021/06/10 10:31:44;;;;;;;4.20;3.90;;;25.60;54.40;;;;;;5051005;28;20045;-57
2021/06/10 10:34:31;;;;;;;4.22;3.83;;;25.60;54.40;;;;;;5036736;28;20051;-55
2021/06/10 10:37:00;;;;;;;3.75;3.45;;;25.60;54.40;;;;;;5040326;28;20071;-56
2021/06/10 10:39:34;;;;;;;4.55;4.15;;;25.60;54.50;;;;;;5052899;28;20119;-53
2021/06/10 10:42:03;;;;;;;4.43;4.03;;;25.50;54.50;;;;;;5054073;28;20083;-54
2021/06/10 10:44:32;;;;;;;3.97;3.67;;;25.50;54.60;;;;;;5055144;28;20072;-51
2021/06/10 10:47:00;;;;;;;3.92;3.63;;;25.50;54.60;;;;;;5051998;28;20468;-57
2021/06/10 10:49:30;;;;;;;4.10;3.70;;;25.50;54.70;;;;;;5037305;28;20053;-55
2021/06/10 10:52:27;;;;;;;3.92;3.63;;;25.50;54.70;;;;;;5054147;28;20148;-55
2021/06/10 10:55:12;;;;;;;5.05;3.83;;;25.50;54.70;;;;;;5051518;28;20135;-54
2021/06/10 10:57:41;;;;;;;3.90;3.60;;;25.50;54.80;;;;;;5051854;28;20488;-55
2021/06/10 11:00:13;;;;;;;3.47;3.20;;;25.50;54.80;;;;;;5053874;28;20041;-55
2021/06/10 11:02:50;;;;;;;3.60;3.30;;;25.40;54.80;;;;;;5052554;28;20072;-52
2021/06/10 11:05:30;;;;;;;3.60;3.30;;;25.50;54.90;;;;;;5052417;28;20464;-53
2021/06/10 11:07:59;;;;;;;4.43;4.03;;;25.40;54.80;;;;;;5041387;28;20564;-55
2021/06/10 11:10:39;;;;;;;4.43;4.03;;;25.40;54.80;;;;;;5047815;28;20053;-54
2021/06/10 11:13:20;;;;;;;4.20;3.90;;;25.50;54.90;;;;;;5037287;28;20073;-55
2021/06/10 11:15:59;;;;;;;3.90;3.60;;;25.40;54.90;;;;;;5042464;28;20049;-55
2021/06/10 11:18:48;;;;;;;4.70;4.30;;;25.40;54.90;;;;;;5052376;28;20190;-55
2021/06/10 11:21:42;;;;;;;4.07;3.70;;;25.50;55.00;;;;;;5053536;28;20047;-56
2021/06/10 11:24:18;;;;;;;4.50;4.10;;;25.50;55.00;;;;;;5035116;28;20489;-54
2021/06/10 11:26:48;;;;;;;4.25;3.85;;;25.50;55.00;;;;;;5048217;28;20303;-54
2021/06/10 11:29:16;;;;;;;4.43;4.03;;;25.40;54.90;;;;;;5052355;28;20070;-55
2021/06/10 11:32:23;;;;;;;3.47;3.17;;;25.50;55.00;;;;;;5042683;28;20057;-54
2021/06/10 11:34:52;;;;;;;3.85;3.55;;;25.40;54.90;;;;;;5052205;28;20084;-53
2021/06/10 11:37:25;;;;;;;4.15;3.75;;;25.40;54.90;;;;;;5038517;28;20159;-53
2021/06/10 11:39:54;;;;;;;3.63;3.33;;;25.40;54.90;;;;;;5035630;28;20046;-56
2021/06/10 11:42:24;;;;;;;4.18;3.83;;;25.40;54.90;;;;;;5049332;28;20049;-53
2021/06/10 11:44:53;;;;;;;4.15;3.75;;;25.40;54.90;;;;;;5052280;28;20111;-54
2021/06/10 11:47:22;;;;;;;3.70;3.40;;;25.40;54.90;;;;;;5052182;28;20071;-54
2021/06/10 11:49:52;;;;;;;3.78;3.47;;;25.50;55.00;;;;;;5051941;28;20049;-52
2021/06/10 11:52:20;;;;;;;3.83;3.53;;;25.40;54.90;;;;;;5051691;28;20067;-54
2021/06/10 11:55:09;;;;;;;4.10;3.70;;;25.40;55.00;;;;;;5041043;28;20115;-53
2021/06/10 11:57:37;;;;;;;3.85;3.55;;;25.40;55.00;;;;;;5035579;28;20041;-55
2021/06/10 12:00:07;;;;;;;3.70;3.40;;;25.40;55.00;;;;;;5035436;28;20534;-54
2021/06/10 12:02:37;;;;;;;3.75;3.45;;;25.50;55.00;;;;;;5046255;28;20404;-51
2021/06/10 12:05:16;;;;;;;4.10;3.70;;;25.40;54.90;;;;;;5051704;28;20044;-52
2021/06/10 12:07:44;;;;;;;4.10;3.70;;;25.50;55.00;;;;;;5043267;28;20055;-58
2021/06/10 12:10:20;;;;;;;3.97;3.67;;;25.50;54.90;;;;;;5051817;28;20056;-53
2021/06/10 12:12:53;;;;;;;3.92;3.60;;;25.50;54.90;;;;;;5041282;28;20042;-54
2021/06/10 12:15:25;;;;;;;4.05;3.75;;;25.50;54.80;;;;;;5046409;28;20524;-55
2021/06/10 12:17:57;;;;;;;3.95;3.58;;;25.60;54.80;;;;;;5052983;28;20055;-53
2021/06/10 12:20:43;;;;;;;4.25;3.85;;;25.50;54.70;;;;;;5051713;28;20547;-56
2021/06/10 12:23:13;;;;;;;3.53;3.22;;;25.60;54.80;;;;;;5051721;28;20120;-56
2021/06/10 12:25:40;;;;;;;3.88;3.58;;;25.60;54.80;;;;;;5040755;28;20467;-56
2021/06/10 12:28:31;;;;;;;4.00;3.63;;;25.50;54.70;;;;;;5036212;28;20049;-58
2021/06/10 12:31:04;;;;;;;3.80;3.50;;;25.50;54.70;;;;;;5047786;28;20135;-56
2021/06/10 12:33:33;;;;;;;;;;;25.50;54.70;;;;;;5051981;28;20111;-52
2021/06/10 12:36:03;;;;;;;3.45;3.15;;;25.50;54.70;;;;;;5040797;28;19983;-53
2021/06/10 12:38:40;;;;;;;4.28;3.88;;;25.50;54.70;;;;;;5046274;28;20049;-54
2021/06/10 12:41:10;;;;;;;4.18;3.78;;;25.50;54.80;;;;;;5039857;28;20144;-55
2021/06/10 12:43:38;;;;;;;4.20;3.80;;;25.50;54.80;;;;;;5046469;28;20052;-57
2021/06/10 12:46:06;;;;;;;4.05;3.65;;;25.50;54.90;;;;;;5040960;28;20049;-54
2021/06/10 12:48:58;;;;;;;3.90;3.60;;;25.50;54.90;;;;;;5034338;28;20128;-52
2021/06/10 12:51:33;;;;;;;3.92;3.60;;;25.50;54.90;;;;;;5034909;28;20056;-53
2021/06/10 12:54:08;;;;;;;3.78;3.47;;;25.40;54.80;;;;;;5038798;28;20061;-55
2021/06/10 12:56:39;;;;;;;3.88;3.58;;;25.40;54.90;;;;;;5051951;28;20504;-55
2021/06/10 12:59:08;;;;;;;4.40;4.00;;;25.40;54.90;;;;;;5054658;28;20045;-55
2021/06/10 13:01:36;;;;;;;3.78;3.47;;;25.40;55.00;;;;;;5054937;28;20044;-55
2021/06/10 13:04:04;;;;;;;3.70;3.40;;;25.50;55.00;;;;;;5055138;28;20049;-54